createdAt,value
2023-02-08T00:01:40.351Z,-1.96
2023-02-08T00:04:09.115Z,-1.94
2023-02-08T00:06:37.477Z,-1.92
2023-02-08T00:09:07.435Z,-1.92
2023-02-08T00:11:36.191Z,-1.89
2023-02-08T00:14:04.555Z,-1.86
2023-02-08T00:16:33.563Z,-1.84
2023-02-08T00:19:01.883Z,-1.85
2023-02-08T00:21:30.348Z,-1.85
2023-02-08T00:23:58.683Z,-1.81
2023-02-08T00:26:27.029Z,-1.78
2023-02-08T00:28:55.491Z,-1.77
2023-02-08T00:31:23.969Z,-1.77
2023-02-08T00:33:52.305Z,-1.73
2023-02-08T00:36:21.060Z,-1.68
2023-02-08T00:38:49.394Z,-1.65
2023-02-08T00:41:17.783Z,-1.63
2023-02-08T00:43:49.514Z,-1.62
2023-02-08T00:46:17.961Z,-1.59
2023-02-08T00:48:46.385Z,-1.57
2023-02-08T00:51:15.547Z,-1.54
2023-02-08T00:53:45.980Z,-1.52
2023-02-08T00:56:16.045Z,-1.49
2023-02-08T00:58:44.558Z,-1.46
2023-02-08T01:01:13.904Z,-1.45
2023-02-08T01:03:45.694Z,-1.44
2023-02-08T01:06:18.201Z,-1.39
2023-02-08T01:08:47.004Z,-1.38
2023-02-08T01:11:21.981Z,-1.35
2023-02-08T01:13:51.239Z,-1.32
2023-02-08T01:16:23.004Z,-1.31
2023-02-08T01:18:53.415Z,-1.34
2023-02-08T01:21:25.028Z,-1.37
2023-02-08T01:23:54.103Z,-1.43
2023-02-08T01:26:23.853Z,-1.43
2023-02-08T01:28:54.147Z,-1.40
2023-02-08T01:31:26.407Z,-1.41
2023-02-08T01:33:56.596Z,-1.38
2023-02-08T01:36:26.566Z,-1.42
2023-02-08T01:38:55.537Z,-1.45
2023-02-08T01:41:43.889Z,-1.43
2023-02-08T01:44:12.171Z,-1.41
2023-02-08T01:46:41.931Z,-1.36
2023-02-08T01:49:29.106Z,-1.35
2023-02-08T01:52:00.551Z,-1.33
2023-02-08T01:54:37.321Z,-1.32
2023-02-08T01:57:07.033Z,-1.34
2023-02-08T01:59:54.977Z,-1.35
2023-02-08T02:02:25.510Z,-1.37
2023-02-08T02:04:55.898Z,-1.39
2023-02-08T02:07:28.745Z,-1.37
2023-02-08T02:10:06.008Z,-1.34
2023-02-08T02:12:37.809Z,-1.35
2023-02-08T02:15:07.728Z,-1.36
2023-02-08T02:17:38.260Z,-1.36
2023-02-08T02:20:24.336Z,-1.36
2023-02-08T02:23:11.506Z,-1.38
2023-02-08T02:25:51.925Z,-1.39
2023-02-08T02:28:35.378Z,-1.40
2023-02-08T02:31:39.691Z,-1.38
2023-02-08T02:34:08.012Z,-1.38
2023-02-08T02:36:49.219Z,-1.38
2023-02-08T02:39:34.333Z,-1.34
2023-02-08T02:43:07.479Z,-1.33
2023-02-08T02:46:17.423Z,-1.32
2023-02-08T02:48:53.193Z,-1.31
2023-02-08T02:51:30.511Z,-1.33
2023-02-08T02:54:21.131Z,-1.37
2023-02-08T02:56:56.039Z,-1.39
2023-02-08T02:59:26.499Z,-1.38
2023-02-08T03:01:56.686Z,-1.38
2023-02-08T03:04:34.562Z,-1.35
2023-02-08T03:07:17.937Z,-1.35
2023-02-08T03:10:08.028Z,-1.39
2023-02-08T03:12:44.343Z,-1.46
2023-02-08T03:15:29.160Z,-1.54
2023-02-08T03:18:14.928Z,-1.65
2023-02-08T03:21:00.848Z,-1.75
2023-02-08T03:23:37.246Z,-1.81
2023-02-08T03:26:28.752Z,-1.81
2023-02-08T03:29:18.648Z,-1.84
2023-02-08T03:32:17.272Z,-1.88
2023-02-08T03:34:57.348Z,-1.92
2023-02-08T03:37:51.973Z,-1.94
2023-02-08T03:40:25.817Z,-1.94
2023-02-08T03:42:58.690Z,-1.92
2023-02-08T03:45:33.507Z,-1.91
2023-02-08T03:48:06.956Z,-1.90
2023-02-08T03:50:40.042Z,-1.87
2023-02-08T03:53:10.753Z,-1.85
2023-02-08T03:55:41.162Z,-1.81
2023-02-08T03:58:46.923Z,-1.76
2023-02-08T04:01:27.301Z,-1.71
2023-02-08T04:03:57.501Z,-1.68
2023-02-08T04:06:26.095Z,-1.70
2023-02-08T04:08:54.340Z,-1.70
2023-02-08T04:11:22.683Z,-1.68
2023-02-08T04:13:51.032Z,-1.66
2023-02-08T04:16:19.332Z,-1.65
2023-02-08T04:18:47.638Z,-1.65
2023-02-08T04:21:17.177Z,-1.67
2023-02-08T04:23:45.484Z,-1.68
2023-02-08T04:26:13.803Z,-1.72
2023-02-08T04:28:42.277Z,-1.71
2023-02-08T04:31:10.803Z,-1.68
2023-02-08T04:33:39.193Z,-1.64
2023-02-08T04:36:07.869Z,-1.62
2023-02-08T04:38:36.227Z,-1.59
2023-02-08T04:41:04.707Z,-1.56
2023-02-08T04:43:33.093Z,-1.55
2023-02-08T04:46:01.506Z,-1.56
2023-02-08T04:48:30.150Z,-1.59
2023-02-08T04:50:58.966Z,-1.60
2023-02-08T04:53:27.488Z,-1.62
2023-02-08T04:55:55.871Z,-1.63
2023-02-08T04:58:24.372Z,-1.66
2023-02-08T05:00:52.852Z,-1.68
2023-02-08T05:03:21.258Z,-1.70
2023-02-08T05:06:00.445Z,-1.70
2023-02-08T05:08:29.297Z,-1.72
2023-02-08T05:10:57.888Z,-1.69
2023-02-08T05:13:26.181Z,-1.66
2023-02-08T05:15:54.631Z,-1.66
2023-02-08T05:18:23.223Z,-1.63
2023-02-08T05:20:59.996Z,-1.62
2023-02-08T05:23:28.666Z,-1.61
2023-02-08T05:25:57.336Z,-1.59
2023-02-08T05:28:26.130Z,-1.56
2023-02-08T05:30:54.729Z,-1.53
2023-02-08T05:33:23.666Z,-1.50
2023-02-08T05:35:51.978Z,-1.52
2023-02-08T05:38:20.379Z,-1.54
2023-02-08T05:40:48.618Z,-1.55
2023-02-08T05:43:17.649Z,-1.55
2023-02-08T05:45:45.943Z,-1.52
2023-02-08T05:48:14.401Z,-1.54
2023-02-08T05:50:43.215Z,-1.56
2023-02-08T05:53:11.700Z,-1.55
2023-02-08T05:55:39.974Z,-1.58
2023-02-08T05:58:08.340Z,-1.60
2023-02-08T06:00:36.818Z,-1.61
2023-02-08T06:03:05.191Z,-1.61
2023-02-08T06:05:34.106Z,-1.62
2023-02-08T06:08:02.609Z,-1.64
2023-02-08T06:10:31.079Z,-1.66
2023-02-08T06:12:59.736Z,-1.69
2023-02-08T06:15:28.470Z,-1.72
2023-02-08T06:17:57.304Z,-1.74
2023-02-08T06:20:25.862Z,-1.74
2023-02-08T06:22:56.546Z,-1.71
2023-02-08T06:25:24.873Z,-1.70
2023-02-08T06:27:54.307Z,-1.69
2023-02-08T06:30:24.091Z,-1.68
2023-02-08T06:32:52.828Z,-1.65
2023-02-08T06:35:21.280Z,-1.62
2023-02-08T06:37:49.900Z,-1.61
2023-02-08T06:40:18.412Z,-1.59
2023-02-08T06:42:48.079Z,-1.57
2023-02-08T06:45:17.565Z,-1.57
2023-02-08T06:47:45.899Z,-1.57
2023-02-08T06:50:15.475Z,-1.55
2023-02-08T06:52:44.758Z,-1.52
2023-02-08T06:55:14.154Z,-1.47
2023-02-08T06:57:42.567Z,-1.42
2023-02-08T07:00:15.488Z,-1.39
2023-02-08T07:02:43.957Z,-1.36
2023-02-08T07:05:12.806Z,-1.32
2023-02-08T07:07:42.571Z,-1.27
2023-02-08T07:10:10.982Z,-1.23
2023-02-08T07:12:39.514Z,-1.21
2023-02-08T07:15:13.333Z,-1.20
2023-02-08T07:17:41.719Z,-1.20
2023-02-08T07:20:11.705Z,-1.19
2023-02-08T07:22:40.588Z,-1.14
2023-02-08T07:25:09.671Z,-1.09
2023-02-08T07:27:38.284Z,-1.03
2023-02-08T07:30:08.283Z,-0.98
2023-02-08T07:32:36.695Z,-0.91
2023-02-08T07:35:05.310Z,-0.90
2023-02-08T07:37:33.954Z,-0.85
2023-02-08T07:40:02.417Z,-0.76
2023-02-08T07:42:30.751Z,-0.66
2023-02-08T07:45:16.244Z,-0.56
2023-02-08T07:47:46.856Z,-0.49
2023-02-08T07:50:16.660Z,-0.39
2023-02-08T07:52:46.499Z,-0.31
2023-02-08T07:55:18.864Z,-0.24
2023-02-08T07:57:49.342Z,-0.09
2023-02-08T08:00:19.113Z,0.03
2023-02-08T08:02:50.667Z,0.17
2023-02-08T08:05:19.286Z,0.33
2023-02-08T08:07:48.145Z,0.40
2023-02-08T08:10:16.538Z,0.52
2023-02-08T08:12:44.835Z,0.69
2023-02-08T08:15:13.295Z,0.78
2023-02-08T08:17:42.430Z,0.82
2023-02-08T08:20:11.826Z,0.83
2023-02-08T08:22:40.216Z,0.76
2023-02-08T08:25:08.756Z,0.68
2023-02-08T08:27:37.768Z,0.75
2023-02-08T08:30:08.463Z,0.91
2023-02-08T08:32:38.539Z,1.08
2023-02-08T08:35:08.496Z,1.25
2023-02-08T08:37:37.590Z,1.37
2023-02-08T08:40:07.894Z,1.48
2023-02-08T08:42:37.013Z,1.51
2023-02-08T08:45:06.486Z,1.49
2023-02-08T08:47:35.163Z,1.46
2023-02-08T08:50:03.908Z,1.39
2023-02-08T08:52:32.305Z,1.32
2023-02-08T08:55:00.646Z,1.33
2023-02-08T08:57:29.151Z,1.36
2023-02-08T08:59:57.621Z,1.37
2023-02-08T09:02:30.625Z,1.40
2023-02-08T09:05:00.899Z,1.48
2023-02-08T09:07:29.419Z,1.67
2023-02-08T09:09:57.845Z,1.92
2023-02-08T09:12:31.339Z,2.09
2023-02-08T09:14:59.715Z,2.27
2023-02-08T09:17:28.619Z,2.35
2023-02-08T09:19:57.195Z,2.27
2023-02-08T09:22:25.567Z,2.18
2023-02-08T09:24:54.213Z,2.18
2023-02-08T09:27:22.739Z,2.21
2023-02-08T09:29:51.150Z,2.27
2023-02-08T09:32:21.304Z,2.17
2023-02-08T09:34:49.867Z,2.00
2023-02-08T09:37:21.048Z,1.80
2023-02-08T09:39:49.578Z,1.67
2023-02-08T09:42:42.386Z,1.63
2023-02-08T09:45:22.846Z,1.70
2023-02-08T09:48:10.984Z,1.75
2023-02-08T09:50:48.830Z,1.82
2023-02-08T09:53:30.741Z,1.84
2023-02-08T09:56:02.072Z,1.85
2023-02-08T09:58:54.068Z,1.90
2023-02-08T10:01:30.060Z,1.94
2023-02-08T10:04:28.925Z,2.06
2023-02-08T10:06:57.465Z,2.17
2023-02-08T10:09:27.454Z,2.24
2023-02-08T10:12:19.852Z,2.34
2023-02-08T10:15:07.010Z,2.40
2023-02-08T10:18:06.515Z,2.45
2023-02-08T10:20:37.664Z,2.50
2023-02-08T10:23:17.248Z,2.56
2023-02-08T10:26:11.063Z,2.56
2023-02-08T10:28:42.491Z,2.89
2023-02-08T10:31:20.346Z,3.39
2023-02-08T10:33:55.219Z,3.95
2023-02-08T10:36:26.981Z,4.29
2023-02-08T10:38:56.966Z,4.18
2023-02-08T10:41:32.243Z,3.92
2023-02-08T10:44:14.538Z,3.62
2023-02-08T10:47:20.685Z,3.22
2023-02-08T10:50:35.891Z,2.80
2023-02-08T10:53:07.898Z,2.47
2023-02-08T10:55:48.092Z,2.22
2023-02-08T10:58:20.203Z,2.02
2023-02-08T11:00:52.098Z,1.89
2023-02-08T11:03:27.269Z,1.74
2023-02-08T11:05:58.797Z,1.64
2023-02-08T11:08:29.034Z,1.55
2023-02-08T11:11:07.793Z,1.42
2023-02-08T11:13:39.786Z,1.37
2023-02-08T11:16:12.692Z,1.33
2023-02-08T11:18:49.188Z,1.29
2023-02-08T11:21:29.461Z,1.26
2023-02-08T11:23:58.530Z,1.22
2023-02-08T11:26:40.074Z,1.24
2023-02-08T11:29:17.608Z,1.27
2023-02-08T11:31:55.216Z,1.28
2023-02-08T11:34:28.459Z,1.23
2023-02-08T11:36:59.492Z,1.17
2023-02-08T11:39:54.459Z,1.13
2023-02-08T11:42:29.854Z,1.14
2023-02-08T11:44:59.963Z,1.18
2023-02-08T11:47:34.449Z,1.20
2023-02-08T11:50:06.775Z,1.19
2023-02-08T11:52:43.420Z,1.45
2023-02-08T11:55:17.715Z,1.99
2023-02-08T11:58:19.227Z,2.49
2023-02-08T12:01:21.697Z,3.07
2023-02-08T12:03:51.103Z,3.59
2023-02-08T12:06:28.729Z,3.95
2023-02-08T12:09:12.700Z,4.16
2023-02-08T12:11:47.462Z,4.35
2023-02-08T12:14:27.747Z,4.48
2023-02-08T12:17:23.303Z,4.56
2023-02-08T12:20:23.305Z,4.69
2023-02-08T12:23:03.504Z,4.75
2023-02-08T12:25:31.908Z,4.73
2023-02-08T12:28:42.528Z,4.71
2023-02-08T12:31:38.844Z,4.77
2023-02-08T12:34:36.775Z,4.73
2023-02-08T12:37:53.584Z,4.62
2023-02-08T12:40:51.112Z,4.54
2023-02-08T12:43:52.033Z,4.55
2023-02-08T12:46:23.481Z,4.61
2023-02-08T12:49:04.197Z,4.70
2023-02-08T12:51:57.140Z,4.77
2023-02-08T12:54:54.230Z,4.79
2023-02-08T12:57:27.251Z,4.79
2023-02-08T13:00:36.927Z,4.74
2023-02-08T13:03:11.467Z,4.64
2023-02-08T13:05:53.472Z,4.61
2023-02-08T13:08:50.556Z,4.51
2023-02-08T13:12:04.589Z,4.47
2023-02-08T13:14:57.492Z,4.44
2023-02-08T13:17:55.203Z,4.38
2023-02-08T13:20:43.914Z,4.32
2023-02-08T13:23:52.096Z,4.26
2023-02-08T13:26:33.308Z,4.22
2023-02-08T13:29:03.040Z,4.17
2023-02-08T13:31:54.043Z,4.14
2023-02-08T13:34:31.536Z,3.97
2023-02-08T13:37:08.840Z,3.83
2023-02-08T13:39:46.355Z,3.66
2023-02-08T13:42:20.799Z,3.44
2023-02-08T13:44:55.701Z,3.23
2023-02-08T13:47:26.883Z,3.10
2023-02-08T13:50:01.966Z,3.05
2023-02-08T13:52:46.498Z,3.02
2023-02-08T13:55:36.212Z,2.96
2023-02-08T13:58:06.075Z,2.81
2023-02-08T14:00:36.888Z,2.65
2023-02-08T14:03:08.638Z,2.50
2023-02-08T14:05:49.086Z,2.34
2023-02-08T14:09:06.516Z,2.17
2023-02-08T14:11:49.794Z,1.95
2023-02-08T14:14:26.505Z,1.78
2023-02-08T14:17:19.794Z,1.64
2023-02-08T14:19:59.123Z,1.50
2023-02-08T14:22:34.966Z,1.37
2023-02-08T14:25:18.030Z,1.28
2023-02-08T14:27:56.756Z,1.18
2023-02-08T14:30:31.397Z,1.08
2023-02-08T14:33:09.401Z,1.02
2023-02-08T14:35:42.791Z,0.94
2023-02-08T14:38:20.764Z,0.86
2023-02-08T14:40:58.062Z,0.81
2023-02-08T14:43:43.190Z,0.75
2023-02-08T14:46:40.354Z,0.68
2023-02-08T14:49:19.414Z,0.62
2023-02-08T14:52:07.686Z,0.58
2023-02-08T14:54:46.310Z,0.53
2023-02-08T14:57:28.139Z,0.46
2023-02-08T15:00:00.784Z,0.39
2023-02-08T15:02:31.592Z,0.34
2023-02-08T15:05:02.458Z,0.29
2023-02-08T15:07:54.377Z,0.27
2023-02-08T15:10:25.011Z,0.20
2023-02-08T15:13:06.720Z,0.15
2023-02-08T15:15:44.152Z,0.08
2023-02-08T15:18:20.551Z,-0.04
2023-02-08T15:21:05.032Z,-0.15
2023-02-08T15:23:33.645Z,-0.25
2023-02-08T15:26:05.071Z,-0.36
2023-02-08T15:28:37.045Z,-0.49
2023-02-08T15:31:12.036Z,-0.61
2023-02-08T15:33:43.613Z,-0.75
2023-02-08T15:36:17.149Z,-0.90
2023-02-08T15:38:45.968Z,-1.02
2023-02-08T15:41:23.952Z,-1.09
2023-02-08T15:44:16.096Z,-1.14
2023-02-08T15:46:46.535Z,-1.20
2023-02-08T15:49:18.336Z,-1.29
2023-02-08T15:51:48.049Z,-1.40
2023-02-08T15:54:20.032Z,-1.50
2023-02-08T15:57:19.173Z,-1.59
2023-02-08T15:59:48.881Z,-1.71
2023-02-08T16:02:22.327Z,-1.83
2023-02-08T16:04:51.411Z,-1.94
2023-02-08T16:07:34.982Z,-2.04
2023-02-08T16:10:06.311Z,-2.16
2023-02-08T16:12:36.270Z,-2.27
2023-02-08T16:15:04.989Z,-2.39
2023-02-08T16:17:44.388Z,-2.52
2023-02-08T16:20:35.964Z,-2.62
2023-02-08T16:26:43.474Z,-2.76
2023-02-08T16:29:24.100Z,-2.82
2023-02-08T16:32:03.791Z,-2.87
2023-02-08T16:34:36.219Z,-2.97
2023-02-08T16:37:20.841Z,-3.06
2023-02-08T16:39:54.043Z,-3.15
2023-02-08T16:42:40.234Z,-3.22
2023-02-08T16:45:09.874Z,-3.30
2023-02-08T16:47:40.089Z,-3.40
2023-02-08T16:50:14.763Z,-3.50
2023-02-08T16:52:43.653Z,-3.61
2023-02-08T16:55:21.360Z,-3.70
2023-02-08T16:57:53.047Z,-3.74
2023-02-08T17:00:23.425Z,-3.75
2023-02-08T17:02:52.951Z,-3.75
2023-02-08T17:05:27.217Z,-3.78
2023-02-08T17:07:56.054Z,-3.83
2023-02-08T17:10:36.925Z,-3.91
2023-02-08T17:13:19.922Z,-3.99
2023-02-08T17:15:54.756Z,-4.08
2023-02-08T17:18:39.478Z,-4.17
2023-02-08T17:21:10.322Z,-4.27
2023-02-08T17:23:44.905Z,-4.37
2023-02-08T17:26:27.584Z,-4.45
2023-02-08T17:28:57.436Z,-4.49
2023-02-08T17:31:29.338Z,-4.52
2023-02-08T17:34:04.690Z,-4.60
2023-02-08T17:36:34.891Z,-4.67
2023-02-08T17:39:05.547Z,-4.70
2023-02-08T17:41:39.286Z,-4.75
2023-02-08T17:44:08.402Z,-4.81
2023-02-08T17:46:42.394Z,-4.87
2023-02-08T17:49:11.355Z,-4.96
2023-02-08T17:51:40.299Z,-5.06
2023-02-08T17:54:17.152Z,-5.10
2023-02-08T17:56:45.631Z,-5.05
2023-02-08T17:59:14.105Z,-4.95
2023-02-08T18:01:46.308Z,-4.86
2023-02-08T18:04:21.465Z,-4.78
2023-02-08T18:06:59.591Z,-4.71
2023-02-08T18:09:28.417Z,-4.65
2023-02-08T18:11:56.702Z,-4.62
2023-02-08T18:14:25.000Z,-4.59
2023-02-08T18:16:53.433Z,-4.55
2023-02-08T18:19:22.412Z,-4.51
2023-02-08T18:21:54.417Z,-4.45
2023-02-08T18:24:22.984Z,-4.42
2023-02-08T18:26:51.363Z,-4.38
2023-02-08T18:29:20.150Z,-4.37
2023-02-08T18:31:50.386Z,-4.36
2023-02-08T18:34:27.640Z,-4.37
2023-02-08T18:36:57.050Z,-4.40
2023-02-08T18:39:25.685Z,-4.42
2023-02-08T18:41:54.941Z,-4.43
2023-02-08T18:44:23.597Z,-4.45
2023-02-08T18:46:53.325Z,-4.46
2023-02-08T18:49:22.480Z,-4.46
2023-02-08T18:51:51.538Z,-4.46
2023-02-08T18:54:23.160Z,-4.48
2023-02-08T18:56:56.164Z,-4.50
2023-02-08T18:59:24.554Z,-4.53
2023-02-08T19:01:55.258Z,-4.59
2023-02-08T19:04:26.295Z,-4.65
2023-02-08T19:06:56.354Z,-4.71
2023-02-08T19:09:24.710Z,-4.78
2023-02-08T19:11:53.108Z,-4.84
2023-02-08T19:14:21.987Z,-4.86
2023-02-08T19:16:50.440Z,-4.90
2023-02-08T19:19:18.887Z,-4.94
2023-02-08T19:21:47.352Z,-4.96
2023-02-08T19:24:15.745Z,-5.01
2023-02-08T19:26:44.143Z,-5.08
2023-02-08T19:29:16.156Z,-5.12
2023-02-08T19:31:46.041Z,-5.18
2023-02-08T19:34:14.712Z,-5.26
2023-02-08T19:36:46.620Z,-5.35
2023-02-08T19:39:24.300Z,-5.42
2023-02-08T19:41:54.281Z,-5.50
2023-02-08T19:44:25.171Z,-5.54
2023-02-08T19:46:55.395Z,-5.60
2023-02-08T19:49:27.324Z,-5.64
2023-02-08T19:52:00.926Z,-5.70
2023-02-08T19:54:29.495Z,-5.76
2023-02-08T19:56:57.964Z,-5.81
2023-02-08T19:59:28.560Z,-5.87
2023-02-08T20:01:57.132Z,-5.92
2023-02-08T20:04:29.718Z,-5.97
2023-02-08T20:06:59.280Z,-6.00
2023-02-08T20:09:28.074Z,-6.02
2023-02-08T20:11:58.075Z,-6.08
2023-02-08T20:14:31.294Z,-6.15
2023-02-08T20:17:02.657Z,-6.20
2023-02-08T20:19:39.859Z,-6.20
2023-02-08T20:22:08.301Z,-6.18
2023-02-08T20:24:40.564Z,-6.11
2023-02-08T20:27:15.085Z,-6.02
2023-02-08T20:29:46.691Z,-5.91
2023-02-08T20:32:15.295Z,-5.80
2023-02-08T20:34:54.131Z,-5.70
2023-02-08T20:37:27.680Z,-5.63
2023-02-08T20:39:58.046Z,-5.60
2023-02-08T20:42:28.860Z,-5.58
2023-02-08T20:44:57.838Z,-5.57
2023-02-08T20:47:27.455Z,-5.58
2023-02-08T20:49:57.705Z,-5.60
2023-02-08T20:52:27.169Z,-5.61
2023-02-08T20:54:55.597Z,-5.63
2023-02-08T20:57:25.316Z,-5.64
2023-02-08T20:59:53.811Z,-5.66
2023-02-08T21:02:23.712Z,-5.69
2023-02-08T21:04:54.917Z,-5.73
2023-02-08T21:07:23.556Z,-5.76
2023-02-08T21:09:51.921Z,-5.80
2023-02-08T21:12:20.371Z,-5.85
2023-02-08T21:14:49.765Z,-5.92
2023-02-08T21:17:18.361Z,-6.00
2023-02-08T21:19:50.780Z,-6.05
2023-02-08T21:22:21.922Z,-6.06
2023-02-08T21:24:52.421Z,-6.06
2023-02-08T21:27:20.952Z,-6.06
2023-02-08T21:29:52.112Z,-6.05
2023-02-08T21:32:20.524Z,-6.05
2023-02-08T21:34:51.031Z,-6.06
2023-02-08T21:37:19.391Z,-6.12
2023-02-08T21:39:50.194Z,-6.20
2023-02-08T21:42:18.685Z,-6.27
2023-02-08T21:44:47.193Z,-6.33
2023-02-08T21:47:15.547Z,-6.36
2023-02-08T21:50:02.633Z,-6.37
2023-02-08T21:52:50.096Z,-6.40
2023-02-08T21:55:18.944Z,-6.40
2023-02-08T21:57:47.196Z,-6.40
2023-02-08T22:00:15.779Z,-6.44
2023-02-08T22:02:44.329Z,-6.48
2023-02-08T22:05:32.602Z,-6.51
2023-02-08T22:08:01.220Z,-6.61
2023-02-08T22:10:32.105Z,-6.68
2023-02-08T22:13:00.998Z,-6.72
2023-02-08T22:15:30.324Z,-6.70
2023-02-08T22:18:01.594Z,-6.68
2023-02-08T22:20:30.652Z,-6.73
2023-02-08T22:22:59.001Z,-6.82
2023-02-08T22:25:27.905Z,-6.89
2023-02-08T22:27:56.419Z,-6.94
2023-02-08T22:30:25.742Z,-6.98
2023-02-08T22:32:57.352Z,-7.03
2023-02-08T22:35:27.571Z,-7.09
2023-02-08T22:37:56.153Z,-7.10
2023-02-08T22:40:24.432Z,-7.12
2023-02-08T22:42:53.951Z,-7.19
2023-02-08T22:45:22.310Z,-7.29
2023-02-08T22:47:50.603Z,-7.39
2023-02-08T22:50:19.404Z,-7.47
2023-02-08T22:52:47.773Z,-7.54
2023-02-08T22:55:16.155Z,-7.63
2023-02-08T22:57:44.566Z,-7.69
2023-02-08T23:00:15.075Z,-7.69
2023-02-08T23:02:44.253Z,-7.68
2023-02-08T23:05:13.139Z,-7.65
2023-02-08T23:07:41.424Z,-7.59
2023-02-08T23:10:10.656Z,-7.52
2023-02-08T23:12:39.668Z,-7.50
2023-02-08T23:15:11.523Z,-7.47
2023-02-08T23:17:39.916Z,-7.42
2023-02-08T23:20:09.791Z,-7.40
2023-02-08T23:22:38.222Z,-7.31
2023-02-08T23:25:09.438Z,-7.27
2023-02-08T23:27:38.993Z,-7.31
2023-02-08T23:30:09.724Z,-7.28
2023-02-08T23:32:40.248Z,-7.26
2023-02-08T23:35:10.062Z,-7.25
2023-02-08T23:37:38.511Z,-7.31
2023-02-08T23:40:07.685Z,-7.38
2023-02-08T23:42:37.063Z,-7.47
2023-02-08T23:45:09.139Z,-7.66
2023-02-08T23:47:39.398Z,-7.78
2023-02-08T23:50:08.939Z,-7.85
2023-02-08T23:52:37.716Z,-7.90
2023-02-08T23:55:27.327Z,-7.98
2023-02-08T23:58:08.365Z,-8.11
